Robinson, IL (62454)

8:51 AM CDT on September 19, 2014 (GMT -0500)
Westlake | Change Station
CLOSE
Current Station
Personal Weather Station
Location: Robinson, IL
Elevation: 525 ft
Nearby Weather Stations

Elev 525 ft 39.00 °N, 87.80 °W | Updated 7 seconds ago

Clear
Clear
60.3 °F
Feels Like 60.3 °F
N
3.0
Wind Variable Wind from ENE
Gusts 3.0 mph

Today
High -- | Low -- °F
--% Chance of Precip.
Yesterday
High -- | Low -- °F
Precip. -- in
6:36 AM 6:52 PM
Waning Crescent, 19% visible
Pressure 30.17 in
Visibility 10.0 miles
Clouds Clear
Dew Point 54 °F
Humidity 80%
Rainfall 0.00 in
Snow Depth Not available.
UV 2 out of 12
Pollen 6.20 out of 12
Air Quality Not available.
Flu Activity Not available.
METAR KRSV 191335Z AUTO 10004KT 10SM CLR 15/14 A3017 RMK AO2 T01450142

More Conditions Fewer Conditions

Pressure 30.17 in
Visibility 10.0 miles
Clouds Clear
Dew Point 54 °F
Humidity 80%
Rainfall 0.00 in
Snow Depth Not available.
UV 2 out of 12
Pollen 6.20 out of 12
Air Quality Not available.
Flu Activity Not available.
METAR KRSV 191335Z AUTO 10004KT 10SM CLR 15/14 A3017 RMK AO2 T01450142

More Conditions Fewer Conditions

10-Day Weather Forecast

Almanac

Astronomy

Sep. 19, 2014 Rise Set
Actual Time 6:36 AM CDT 6:52 PM CDT
Civil Twilight 6:09 AM CDT 7:19 PM CDT
Nautical Twilight 5:38 AM CDT 7:50 PM CDT
Astronomical Twilight 5:06 AM CDT 8:22 PM CDT
Moon 2:22 AM CDT 4:20 PM CDT
Length of Visible Light 13h 10m
Length of Day
12h 16m
Tomorrow will be 2m 31s shorter.
Waning Crescent, 19% of the Moon is Illuminated
Today
Waning Crescent
Sep 24
New
Oct 1
First Quarter
Oct 8
Full
Oct 15
Last Quarter

Today's Extremes

State Highs State Lows

Community

WunderPhotos

Upload Photos

1,754,608 photos uploaded!

WunderBlogs® & News

Nearby

Snow Depth

Station Depth Elevation
No new snow has been reported.

Earthquake Activity

City Distance Mag. Time & Date
No recent earthquake activity has been reported nearby.
Minimum magnitude displayed is 2.5.

Coastal Water Temperatures

Place Temperature
No Stations Reporting

Nearby Weather Stations